sensor_id;sensor_type;location;lat;lon;timestamp;P1;durP1;ratioP1;P2;durP2;ratioP2
18360;SDS011;9308;48.550;9.108;2023-06-10T00:01:27;10.40;;;9.60;;
18360;SDS011;9308;48.550;9.108;2023-06-10T00:03:53;10.60;;;9.80;;
18360;SDS011;9308;48.550;9.108;2023-06-10T00:06:19;10.50;;;9.63;;
18360;SDS011;9308;48.550;9.108;2023-06-10T00:08:47;10.93;;;9.93;;
18360;SDS011;9308;48.550;9.108;2023-06-10T00:11:13;10.20;;;9.30;;
18360;SDS011;9308;48.550;9.108;2023-06-10T00:13:38;10.73;;;9.83;;
18360;SDS011;9308;48.550;9.108;2023-06-10T00:16:04;10.40;;;9.60;;
18360;SDS011;9308;48.550;9.108;2023-06-10T00:18:29;9.83;;;9.13;;
18360;SDS011;9308;48.550;9.108;2023-06-10T00:20:56;9.57;;;8.97;;
18360;SDS011;9308;48.550;9.108;2023-06-10T00:23:22;11.33;;;10.50;;
18360;SDS011;9308;48.550;9.108;2023-06-10T00:25:50;11.10;;;10.00;;
18360;SDS011;9308;48.550;9.108;2023-06-10T00:28:15;9.63;;;8.83;;
18360;SDS011;9308;48.550;9.108;2023-06-10T00:30:41;10.30;;;9.50;;
18360;SDS011;9308;48.550;9.108;2023-06-10T00:33:06;10.60;;;9.90;;
18360;SDS011;9308;48.550;9.108;2023-06-10T00:35:31;10.47;;;9.67;;
18360;SDS011;9308;48.550;9.108;2023-06-10T00:37:57;9.70;;;8.90;;
18360;SDS011;9308;48.550;9.108;2023-06-10T00:40:22;11.07;;;10.23;;
18360;SDS011;9308;48.550;9.108;2023-06-10T00:42:48;10.40;;;9.60;;
18360;SDS011;9308;48.550;9.108;2023-06-10T00:45:13;10.47;;;9.57;;
18360;SDS011;9308;48.550;9.108;2023-06-10T00:47:39;10.87;;;9.87;;
18360;SDS011;9308;48.550;9.108;2023-06-10T00:50:05;11.47;;;10.50;;
18360;SDS011;9308;48.550;9.108;2023-06-10T00:52:31;10.03;;;9.33;;
18360;SDS011;9308;48.550;9.108;2023-06-10T00:54:57;10.20;;;9.40;;
18360;SDS011;9308;48.550;9.108;2023-06-10T00:57:24;10.83;;;10.00;;
18360;SDS011;9308;48.550;9.108;2023-06-10T00:59:50;10.03;;;9.33;;
18360;SDS011;9308;48.550;9.108;2023-06-10T01:02:16;10.50;;;9.73;;
18360;SDS011;9308;48.550;9.108;2023-06-10T01:04:41;11.03;;;10.00;;
18360;SDS011;9308;48.550;9.108;2023-06-10T01:07:13;10.60;;;9.83;;
18360;SDS011;9308;48.550;9.108;2023-06-10T01:12:18;11.00;;;10.03;;
18360;SDS011;9308;48.550;9.108;2023-06-10T01:14:51;10.50;;;9.70;;
18360;SDS011;9308;48.550;9.108;2023-06-10T01:17:17;10.40;;;9.60;;
18360;SDS011;9308;48.550;9.108;2023-06-10T01:19:43;10.20;;;9.40;;
18360;SDS011;9308;48.550;9.108;2023-06-10T01:22:09;10.90;;;10.00;;
18360;SDS011;9308;48.550;9.108;2023-06-10T01:24:38;10.17;;;9.27;;
18360;SDS011;9308;48.550;9.108;2023-06-10T01:27:05;9.80;;;9.10;;
18360;SDS011;9308;48.550;9.108;2023-06-10T01:29:39;11.20;;;10.20;;
18360;SDS011;9308;48.550;9.108;2023-06-10T01:32:17;9.60;;;8.90;;
18360;SDS011;9308;48.550;9.108;2023-06-10T01:34:46;10.73;;;9.83;;
18360;SDS011;9308;48.550;9.108;2023-06-10T01:37:13;10.30;;;9.50;;
18360;SDS011;9308;48.550;9.108;2023-06-10T01:39:42;10.90;;;10.00;;
18360;SDS011;9308;48.550;9.108;2023-06-10T01:42:08;11.37;;;10.37;;
18360;SDS011;9308;48.550;9.108;2023-06-10T01:44:35;10.50;;;9.70;;
18360;SDS011;9308;48.550;9.108;2023-06-10T01:47:01;10.87;;;9.93;;
18360;SDS011;9308;48.550;9.108;2023-06-10T01:49:26;10.60;;;9.80;;
18360;SDS011;9308;48.550;9.108;2023-06-10T01:51:53;10.83;;;9.83;;
18360;SDS011;9308;48.550;9.108;2023-06-10T01:54:19;10.80;;;10.00;;
18360;SDS011;9308;48.550;9.108;2023-06-10T01:56:44;11.50;;;10.43;;
18360;SDS011;9308;48.550;9.108;2023-06-10T01:59:10;10.53;;;9.73;;
18360;SDS011;9308;48.550;9.108;2023-06-10T02:01:35;10.93;;;9.93;;
18360;SDS011;9308;48.550;9.108;2023-06-10T02:04:00;10.07;;;9.30;;
18360;SDS011;9308;48.550;9.108;2023-06-10T02:06:26;11.13;;;10.20;;
18360;SDS011;9308;48.550;9.108;2023-06-10T02:08:51;11.00;;;10.10;;
18360;SDS011;9308;48.550;9.108;2023-06-10T02:11:17;11.30;;;10.30;;
18360;SDS011;9308;48.550;9.108;2023-06-10T02:13:42;11.30;;;10.30;;
18360;SDS011;9308;48.550;9.108;2023-06-10T02:16:08;10.60;;;9.77;;
18360;SDS011;9308;48.550;9.108;2023-06-10T02:18:34;11.00;;;10.10;;
18360;SDS011;9308;48.550;9.108;2023-06-10T02:21:00;11.80;;;10.90;;
18360;SDS011;9308;48.550;9.108;2023-06-10T02:23:25;11.73;;;10.83;;
18360;SDS011;9308;48.550;9.108;2023-06-10T02:25:50;11.87;;;10.97;;
18360;SDS011;9308;48.550;9.108;2023-06-10T02:28:16;12.87;;;11.67;;
18360;SDS011;9308;48.550;9.108;2023-06-10T02:30:41;11.30;;;10.33;;
18360;SDS011;9308;48.550;9.108;2023-06-10T02:33:07;12.13;;;11.00;;
18360;SDS011;9308;48.550;9.108;2023-06-10T02:35:37;12.00;;;11.00;;
18360;SDS011;9308;48.550;9.108;2023-06-10T02:38:03;11.80;;;10.90;;
18360;SDS011;9308;48.550;9.108;2023-06-10T02:40:29;12.00;;;11.00;;
18360;SDS011;9308;48.550;9.108;2023-06-10T02:42:54;11.73;;;10.83;;
18360;SDS011;9308;48.550;9.108;2023-06-10T02:45:20;11.63;;;10.53;;
18360;SDS011;9308;48.550;9.108;2023-06-10T02:47:45;12.10;;;11.20;;
18360;SDS011;9308;48.550;9.108;2023-06-10T02:50:11;10.77;;;9.87;;
18360;SDS011;9308;48.550;9.108;2023-06-10T02:52:36;11.80;;;10.83;;
18360;SDS011;9308;48.550;9.108;2023-06-10T02:55:02;11.60;;;10.63;;
18360;SDS011;9308;48.550;9.108;2023-06-10T02:57:28;11.53;;;10.63;;
18360;SDS011;9308;48.550;9.108;2023-06-10T02:59:53;11.03;;;10.23;;
18360;SDS011;9308;48.550;9.108;2023-06-10T03:02:18;11.03;;;10.13;;
18360;SDS011;9308;48.550;9.108;2023-06-10T03:04:45;12.10;;;11.10;;
18360;SDS011;9308;48.550;9.108;2023-06-10T03:07:10;12.53;;;11.53;;
18360;SDS011;9308;48.550;9.108;2023-06-10T03:09:36;12.00;;;11.10;;
18360;SDS011;9308;48.550;9.108;2023-06-10T03:12:02;11.90;;;11.00;;
18360;SDS011;9308;48.550;9.108;2023-06-10T03:14:27;12.37;;;11.23;;
18360;SDS011;9308;48.550;9.108;2023-06-10T03:16:53;12.20;;;11.10;;
18360;SDS011;9308;48.550;9.108;2023-06-10T03:19:18;12.10;;;11.00;;
18360;SDS011;9308;48.550;9.108;2023-06-10T03:21:44;12.50;;;11.30;;
18360;SDS011;9308;48.550;9.108;2023-06-10T03:24:10;12.03;;;11.03;;
18360;SDS011;9308;48.550;9.108;2023-06-10T03:26:36;10.73;;;9.93;;
18360;SDS011;9308;48.550;9.108;2023-06-10T03:29:01;11.03;;;10.20;;
18360;SDS011;9308;48.550;9.108;2023-06-10T03:31:27;12.27;;;11.27;;
18360;SDS011;9308;48.550;9.108;2023-06-10T03:33:52;12.30;;;11.30;;
18360;SDS011;9308;48.550;9.108;2023-06-10T03:36:18;10.90;;;10.10;;
18360;SDS011;9308;48.550;9.108;2023-06-10T03:38:43;12.10;;;10.90;;
18360;SDS011;9308;48.550;9.108;2023-06-10T03:41:08;12.17;;;11.17;;
18360;SDS011;9308;48.550;9.108;2023-06-10T03:43:34;11.73;;;10.80;;
18360;SDS011;9308;48.550;9.108;2023-06-10T03:46:00;10.70;;;9.90;;
18360;SDS011;9308;48.550;9.108;2023-06-10T03:48:25;11.60;;;10.60;;
18360;SDS011;9308;48.550;9.108;2023-06-10T03:50:51;11.00;;;9.97;;
18360;SDS011;9308;48.550;9.108;2023-06-10T03:53:17;11.10;;;10.20;;
18360;SDS011;9308;48.550;9.108;2023-06-10T03:55:42;10.87;;;10.00;;
18360;SDS011;9308;48.550;9.108;2023-06-10T03:58:08;10.73;;;9.90;;
18360;SDS011;9308;48.550;9.108;2023-06-10T04:00:33;11.50;;;10.60;;
18360;SDS011;9308;48.550;9.108;2023-06-10T04:03:06;11.73;;;10.73;;
18360;SDS011;9308;48.550;9.108;2023-06-10T04:05:34;11.50;;;10.60;;
18360;SDS011;9308;48.550;9.108;2023-06-10T04:08:00;11.83;;;10.70;;
18360;SDS011;9308;48.550;9.108;2023-06-10T04:10:26;11.30;;;10.40;;
18360;SDS011;9308;48.550;9.108;2023-06-10T04:12:52;11.67;;;10.63;;
18360;SDS011;9308;48.550;9.108;2023-06-10T04:15:17;11.20;;;10.30;;
18360;SDS011;9308;48.550;9.108;2023-06-10T04:17:43;11.30;;;10.30;;
18360;SDS011;9308;48.550;9.108;2023-06-10T04:20:08;11.27;;;10.40;;
18360;SDS011;9308;48.550;9.108;2023-06-10T04:22:35;12.47;;;11.47;;
18360;SDS011;9308;48.550;9.108;2023-06-10T04:25:01;11.93;;;11.03;;
18360;SDS011;9308;48.550;9.108;2023-06-10T04:27:27;12.43;;;11.33;;
18360;SDS011;9308;48.550;9.108;2023-06-10T04:29:52;12.00;;;11.10;;
18360;SDS011;9308;48.550;9.108;2023-06-10T04:32:18;12.47;;;11.30;;
18360;SDS011;9308;48.550;9.108;2023-06-10T04:34:44;12.00;;;11.10;;
18360;SDS011;9308;48.550;9.108;2023-06-10T04:37:09;11.30;;;10.40;;
18360;SDS011;9308;48.550;9.108;2023-06-10T04:39:35;12.60;;;11.50;;
18360;SDS011;9308;48.550;9.108;2023-06-10T04:42:00;11.10;;;10.10;;
18360;SDS011;9308;48.550;9.108;2023-06-10T04:44:26;10.13;;;9.33;;
18360;SDS011;9308;48.550;9.108;2023-06-10T04:46:52;10.80;;;9.80;;
18360;SDS011;9308;48.550;9.108;2023-06-10T04:49:17;10.90;;;9.90;;
18360;SDS011;9308;48.550;9.108;2023-06-10T04:51:43;9.83;;;9.00;;
18360;SDS011;9308;48.550;9.108;2023-06-10T04:54:09;10.30;;;9.30;;
18360;SDS011;9308;48.550;9.108;2023-06-10T04:56:34;10.10;;;9.30;;
18360;SDS011;9308;48.550;9.108;2023-06-10T04:58:59;10.17;;;9.37;;
18360;SDS011;9308;48.550;9.108;2023-06-10T05:01:25;11.30;;;10.33;;
18360;SDS011;9308;48.550;9.108;2023-06-10T05:03:51;11.03;;;10.23;;
18360;SDS011;9308;48.550;9.108;2023-06-10T05:06:16;11.70;;;10.77;;
18360;SDS011;9308;48.550;9.108;2023-06-10T05:08:42;11.80;;;10.80;;
18360;SDS011;9308;48.550;9.108;2023-06-10T05:11:07;11.40;;;10.50;;
18360;SDS011;9308;48.550;9.108;2023-06-10T05:13:33;12.00;;;11.00;;
18360;SDS011;9308;48.550;9.108;2023-06-10T05:15:59;12.40;;;11.20;;
18360;SDS011;9308;48.550;9.108;2023-06-10T05:18:25;12.63;;;11.63;;
18360;SDS011;9308;48.550;9.108;2023-06-10T05:20:51;11.97;;;11.03;;
18360;SDS011;9308;48.550;9.108;2023-06-10T05:23:19;12.30;;;11.20;;
18360;SDS011;9308;48.550;9.108;2023-06-10T05:25:45;11.57;;;10.57;;
18360;SDS011;9308;48.550;9.108;2023-06-10T05:28:11;10.57;;;9.77;;
18360;SDS011;9308;48.550;9.108;2023-06-10T05:30:36;11.67;;;10.37;;
18360;SDS011;9308;48.550;9.108;2023-06-10T05:33:03;11.97;;;10.97;;
18360;SDS011;9308;48.550;9.108;2023-06-10T05:35:29;11.43;;;10.53;;
18360;SDS011;9308;48.550;9.108;2023-06-10T05:37:54;10.97;;;10.07;;
18360;SDS011;9308;48.550;9.108;2023-06-10T05:40:20;11.20;;;10.30;;
18360;SDS011;9308;48.550;9.108;2023-06-10T05:42:45;10.40;;;9.60;;
18360;SDS011;9308;48.550;9.108;2023-06-10T05:45:11;11.23;;;10.13;;
18360;SDS011;9308;48.550;9.108;2023-06-10T05:47:36;11.63;;;10.43;;
18360;SDS011;9308;48.550;9.108;2023-06-10T05:50:02;10.00;;;9.10;;
18360;SDS011;9308;48.550;9.108;2023-06-10T05:52:32;10.53;;;9.73;;
18360;SDS011;9308;48.550;9.108;2023-06-10T05:54:58;10.47;;;9.57;;
18360;SDS011;9308;48.550;9.108;2023-06-10T05:57:25;9.80;;;9.10;;
18360;SDS011;9308;48.550;9.108;2023-06-10T05:59:51;10.50;;;9.60;;
18360;SDS011;9308;48.550;9.108;2023-06-10T06:02:17;11.63;;;10.43;;
18360;SDS011;9308;48.550;9.108;2023-06-10T06:04:42;10.97;;;10.07;;
18360;SDS011;9308;48.550;9.108;2023-06-10T06:07:08;10.90;;;10.10;;
18360;SDS011;9308;48.550;9.108;2023-06-10T06:09:33;9.60;;;8.70;;
18360;SDS011;9308;48.550;9.108;2023-06-10T06:11:59;9.30;;;8.57;;
18360;SDS011;9308;48.550;9.108;2023-06-10T06:14:24;10.40;;;9.57;;
18360;SDS011;9308;48.550;9.108;2023-06-10T06:16:50;10.30;;;9.47;;
18360;SDS011;9308;48.550;9.108;2023-06-10T06:19:15;10.50;;;9.57;;
18360;SDS011;9308;48.550;9.108;2023-06-10T06:21:41;9.60;;;8.80;;
18360;SDS011;9308;48.550;9.108;2023-06-10T06:24:06;8.97;;;8.27;;
18360;SDS011;9308;48.550;9.108;2023-06-10T06:26:32;10.20;;;9.30;;
18360;SDS011;9308;48.550;9.108;2023-06-10T06:28:57;9.60;;;8.80;;
18360;SDS011;9308;48.550;9.108;2023-06-10T06:31:23;9.90;;;9.00;;
18360;SDS011;9308;48.550;9.108;2023-06-10T06:33:48;9.07;;;8.37;;
18360;SDS011;9308;48.550;9.108;2023-06-10T06:36:13;9.30;;;8.43;;
18360;SDS011;9308;48.550;9.108;2023-06-10T06:38:39;9.20;;;8.50;;
18360;SDS011;9308;48.550;9.108;2023-06-10T06:41:04;9.10;;;8.13;;
18360;SDS011;9308;48.550;9.108;2023-06-10T06:43:31;8.80;;;8.10;;
18360;SDS011;9308;48.550;9.108;2023-06-10T06:45:57;8.87;;;8.23;;
18360;SDS011;9308;48.550;9.108;2023-06-10T06:48:23;9.37;;;8.70;;
18360;SDS011;9308;48.550;9.108;2023-06-10T06:50:48;9.33;;;8.50;;
18360;SDS011;9308;48.550;9.108;2023-06-10T06:53:14;9.53;;;8.73;;
18360;SDS011;9308;48.550;9.108;2023-06-10T06:55:39;9.30;;;8.50;;
18360;SDS011;9308;48.550;9.108;2023-06-10T06:58:05;9.60;;;8.70;;
18360;SDS011;9308;48.550;9.108;2023-06-10T07:00:31;9.07;;;8.37;;
18360;SDS011;9308;48.550;9.108;2023-06-10T07:02:56;9.03;;;8.33;;
18360;SDS011;9308;48.550;9.108;2023-06-10T07:05:23;11.00;;;9.90;;
18360;SDS011;9308;48.550;9.108;2023-06-10T07:07:51;9.97;;;9.07;;
18360;SDS011;9308;48.550;9.108;2023-06-10T07:10:20;9.80;;;8.50;;
18360;SDS011;9308;48.550;9.108;2023-06-10T07:12:49;10.53;;;9.63;;
18360;SDS011;9308;48.550;9.108;2023-06-10T07:15:15;9.80;;;8.93;;
18360;SDS011;9308;48.550;9.108;2023-06-10T07:17:41;8.87;;;8.17;;
18360;SDS011;9308;48.550;9.108;2023-06-10T07:20:07;9.87;;;8.97;;
18360;SDS011;9308;48.550;9.108;2023-06-10T07:22:33;9.47;;;8.67;;
18360;SDS011;9308;48.550;9.108;2023-06-10T07:24:58;9.40;;;8.70;;
18360;SDS011;9308;48.550;9.108;2023-06-10T07:27:23;9.50;;;8.80;;
18360;SDS011;9308;48.550;9.108;2023-06-10T07:29:50;9.90;;;9.00;;
18360;SDS011;9308;48.550;9.108;2023-06-10T07:32:16;9.03;;;8.33;;
18360;SDS011;9308;48.550;9.108;2023-06-10T07:34:41;9.53;;;7.93;;
18360;SDS011;9308;48.550;9.108;2023-06-10T07:37:06;9.70;;;9.00;;
18360;SDS011;9308;48.550;9.108;2023-06-10T07:39:32;10.07;;;9.17;;
18360;SDS011;9308;48.550;9.108;2023-06-10T07:41:57;10.67;;;9.87;;
18360;SDS011;9308;48.550;9.108;2023-06-10T07:44:23;8.90;;;8.20;;
18360;SDS011;9308;48.550;9.108;2023-06-10T07:46:49;9.53;;;8.63;;
18360;SDS011;9308;48.550;9.108;2023-06-10T07:49:14;9.17;;;8.37;;
18360;SDS011;9308;48.550;9.108;2023-06-10T07:51:40;9.80;;;9.00;;
18360;SDS011;9308;48.550;9.108;2023-06-10T07:54:05;8.87;;;8.07;;
18360;SDS011;9308;48.550;9.108;2023-06-10T07:56:31;8.57;;;7.87;;
18360;SDS011;9308;48.550;9.108;2023-06-10T07:58:57;8.70;;;8.00;;
18360;SDS011;9308;48.550;9.108;2023-06-10T08:01:22;8.60;;;7.90;;
18360;SDS011;9308;48.550;9.108;2023-06-10T08:03:48;8.10;;;7.50;;
18360;SDS011;9308;48.550;9.108;2023-06-10T08:06:14;8.93;;;8.30;;
18360;SDS011;9308;48.550;9.108;2023-06-10T08:08:39;8.00;;;7.40;;
18360;SDS011;9308;48.550;9.108;2023-06-10T08:11:08;8.00;;;7.40;;
18360;SDS011;9308;48.550;9.108;2023-06-10T08:13:33;8.53;;;7.90;;
18360;SDS011;9308;48.550;9.108;2023-06-10T08:15:59;7.70;;;7.07;;
18360;SDS011;9308;48.550;9.108;2023-06-10T08:18:24;8.67;;;7.97;;
18360;SDS011;9308;48.550;9.108;2023-06-10T08:20:50;8.50;;;7.80;;
18360;SDS011;9308;48.550;9.108;2023-06-10T08:23:15;10.27;;;8.03;;
18360;SDS011;9308;48.550;9.108;2023-06-10T08:25:40;8.30;;;7.60;;
18360;SDS011;9308;48.550;9.108;2023-06-10T08:28:06;8.70;;;7.90;;
18360;SDS011;9308;48.550;9.108;2023-06-10T08:30:31;8.30;;;7.60;;
18360;SDS011;9308;48.550;9.108;2023-06-10T08:32:57;8.67;;;8.07;;
18360;SDS011;9308;48.550;9.108;2023-06-10T08:35:22;8.33;;;7.50;;
18360;SDS011;9308;48.550;9.108;2023-06-10T08:37:48;8.27;;;7.60;;
18360;SDS011;9308;48.550;9.108;2023-06-10T08:40:13;7.73;;;7.13;;
18360;SDS011;9308;48.550;9.108;2023-06-10T08:42:39;7.57;;;7.00;;
18360;SDS011;9308;48.550;9.108;2023-06-10T08:45:12;7.33;;;6.73;;
18360;SDS011;9308;48.550;9.108;2023-06-10T08:47:43;7.80;;;7.13;;
18360;SDS011;9308;48.550;9.108;2023-06-10T08:50:10;9.10;;;8.30;;
18360;SDS011;9308;48.550;9.108;2023-06-10T08:52:36;8.23;;;7.53;;
18360;SDS011;9308;48.550;9.108;2023-06-10T08:55:03;7.30;;;6.60;;
18360;SDS011;9308;48.550;9.108;2023-06-10T08:57:35;6.90;;;6.40;;
18360;SDS011;9308;48.550;9.108;2023-06-10T09:00:02;7.77;;;7.17;;
18360;SDS011;9308;48.550;9.108;2023-06-10T09:02:28;7.37;;;6.73;;
18360;SDS011;9308;48.550;9.108;2023-06-10T09:04:53;7.50;;;7.00;;
18360;SDS011;9308;48.550;9.108;2023-06-10T09:07:21;7.00;;;6.40;;
18360;SDS011;9308;48.550;9.108;2023-06-10T09:09:48;7.10;;;6.40;;
18360;SDS011;9308;48.550;9.108;2023-06-10T09:12:14;7.30;;;6.70;;
18360;SDS011;9308;48.550;9.108;2023-06-10T09:14:40;7.00;;;6.50;;
18360;SDS011;9308;48.550;9.108;2023-06-10T09:17:07;6.40;;;6.00;;
18360;SDS011;9308;48.550;9.108;2023-06-10T09:19:32;7.77;;;7.17;;
18360;SDS011;9308;48.550;9.108;2023-06-10T09:21:58;7.10;;;6.60;;
18360;SDS011;9308;48.550;9.108;2023-06-10T09:24:24;6.60;;;6.10;;
18360;SDS011;9308;48.550;9.108;2023-06-10T09:26:50;6.70;;;6.20;;
18360;SDS011;9308;48.550;9.108;2023-06-10T09:29:27;6.63;;;6.17;;
18360;SDS011;9308;48.550;9.108;2023-06-10T09:31:53;6.90;;;6.40;;
18360;SDS011;9308;48.550;9.108;2023-06-10T09:34:18;7.63;;;7.10;;
18360;SDS011;9308;48.550;9.108;2023-06-10T09:36:44;7.50;;;6.90;;
18360;SDS011;9308;48.550;9.108;2023-06-10T09:39:15;6.70;;;6.10;;
18360;SDS011;9308;48.550;9.108;2023-06-10T09:41:41;6.63;;;6.03;;
18360;SDS011;9308;48.550;9.108;2023-06-10T09:44:17;7.07;;;6.47;;
18360;SDS011;9308;48.550;9.108;2023-06-10T09:46:47;6.50;;;5.90;;
18360;SDS011;9308;48.550;9.108;2023-06-10T09:49:15;6.80;;;6.30;;
18360;SDS011;9308;48.550;9.108;2023-06-10T09:51:53;7.60;;;6.90;;
18360;SDS011;9308;48.550;9.108;2023-06-10T09:54:20;6.07;;;5.67;;
18360;SDS011;9308;48.550;9.108;2023-06-10T09:56:47;6.13;;;5.63;;
18360;SDS011;9308;48.550;9.108;2023-06-10T09:59:13;6.30;;;5.80;;
18360;SDS011;9308;48.550;9.108;2023-06-10T10:01:39;6.50;;;6.07;;
18360;SDS011;9308;48.550;9.108;2023-06-10T10:04:05;6.53;;;6.03;;
18360;SDS011;9308;48.550;9.108;2023-06-10T10:06:31;6.57;;;6.07;;
18360;SDS011;9308;48.550;9.108;2023-06-10T10:08:56;6.23;;;5.77;;
18360;SDS011;9308;48.550;9.108;2023-06-10T10:11:22;6.27;;;5.80;;
18360;SDS011;9308;48.550;9.108;2023-06-10T10:13:49;6.03;;;5.63;;
18360;SDS011;9308;48.550;9.108;2023-06-10T10:16:23;5.97;;;5.57;;
18360;SDS011;9308;48.550;9.108;2023-06-10T10:18:59;5.73;;;5.33;;
18360;SDS011;9308;48.550;9.108;2023-06-10T10:21:30;5.50;;;5.10;;
18360;SDS011;9308;48.550;9.108;2023-06-10T10:24:08;6.87;;;6.27;;
18360;SDS011;9308;48.550;9.108;2023-06-10T10:26:40;6.50;;;6.10;;
18360;SDS011;9308;48.550;9.108;2023-06-10T10:31:56;6.53;;;5.93;;
18360;SDS011;9308;48.550;9.108;2023-06-10T10:37:31;6.50;;;5.90;;
18360;SDS011;9308;48.550;9.108;2023-06-10T10:39:56;6.70;;;6.20;;
18360;SDS011;9308;48.550;9.108;2023-06-10T10:42:23;7.30;;;6.70;;
18360;SDS011;9308;48.550;9.108;2023-06-10T10:44:48;6.73;;;6.23;;
18360;SDS011;9308;48.550;9.108;2023-06-10T10:47:15;6.10;;;5.50;;
18360;SDS011;9308;48.550;9.108;2023-06-10T10:49:40;6.50;;;5.47;;
18360;SDS011;9308;48.550;9.108;2023-06-10T10:52:11;5.83;;;5.43;;
18360;SDS011;9308;48.550;9.108;2023-06-10T10:54:37;6.70;;;6.20;;
18360;SDS011;9308;48.550;9.108;2023-06-10T11:02:10;6.33;;;5.83;;
18360;SDS011;9308;48.550;9.108;2023-06-10T11:04:45;6.87;;;6.37;;
18360;SDS011;9308;48.550;9.108;2023-06-10T11:07:11;5.83;;;5.43;;
18360;SDS011;9308;48.550;9.108;2023-06-10T11:09:44;6.50;;;6.00;;
18360;SDS011;9308;48.550;9.108;2023-06-10T11:12:23;6.90;;;6.40;;
18360;SDS011;9308;48.550;9.108;2023-06-10T11:14:53;6.53;;;6.03;;
18360;SDS011;9308;48.550;9.108;2023-06-10T11:17:20;6.00;;;5.60;;
18360;SDS011;9308;48.550;9.108;2023-06-10T11:19:46;6.33;;;5.93;;
18360;SDS011;9308;48.550;9.108;2023-06-10T11:22:16;6.73;;;6.33;;
18360;SDS011;9308;48.550;9.108;2023-06-10T11:24:47;5.60;;;5.20;;
18360;SDS011;9308;48.550;9.108;2023-06-10T11:27:16;6.37;;;5.87;;
18360;SDS011;9308;48.550;9.108;2023-06-10T11:32:32;7.47;;;6.87;;
18360;SDS011;9308;48.550;9.108;2023-06-10T11:34:59;6.03;;;5.60;;
18360;SDS011;9308;48.550;9.108;2023-06-10T11:37:27;5.80;;;5.40;;
18360;SDS011;9308;48.550;9.108;2023-06-10T11:39:53;5.60;;;5.20;;
18360;SDS011;9308;48.550;9.108;2023-06-10T11:42:19;5.83;;;5.33;;
18360;SDS011;9308;48.550;9.108;2023-06-10T11:44:48;5.20;;;4.80;;
18360;SDS011;9308;48.550;9.108;2023-06-10T11:47:18;6.00;;;5.60;;
18360;SDS011;9308;48.550;9.108;2023-06-10T11:49:44;6.27;;;5.77;;
18360;SDS011;9308;48.550;9.108;2023-06-10T11:52:10;6.20;;;5.80;;
18360;SDS011;9308;48.550;9.108;2023-06-10T11:54:37;6.20;;;5.70;;
18360;SDS011;9308;48.550;9.108;2023-06-10T11:57:03;5.93;;;5.53;;
18360;SDS011;9308;48.550;9.108;2023-06-10T11:59:29;6.20;;;5.70;;
18360;SDS011;9308;48.550;9.108;2023-06-10T12:01:55;5.93;;;5.53;;
18360;SDS011;9308;48.550;9.108;2023-06-10T12:04:22;6.47;;;5.97;;
18360;SDS011;9308;48.550;9.108;2023-06-10T12:06:48;6.20;;;5.77;;
18360;SDS011;9308;48.550;9.108;2023-06-10T12:11:41;6.67;;;6.07;;
18360;SDS011;9308;48.550;9.108;2023-06-10T12:14:09;6.10;;;5.67;;
18360;SDS011;9308;48.550;9.108;2023-06-10T12:16:34;6.27;;;5.70;;
18360;SDS011;9308;48.550;9.108;2023-06-10T12:19:00;5.93;;;5.43;;
18360;SDS011;9308;48.550;9.108;2023-06-10T12:21:31;6.80;;;6.30;;
18360;SDS011;9308;48.550;9.108;2023-06-10T12:26:53;6.30;;;5.83;;
18360;SDS011;9308;48.550;9.108;2023-06-10T12:29:24;6.10;;;5.70;;
18360;SDS011;9308;48.550;9.108;2023-06-10T12:32:03;5.90;;;5.50;;
18360;SDS011;9308;48.550;9.108;2023-06-10T12:34:35;6.00;;;5.50;;
18360;SDS011;9308;48.550;9.108;2023-06-10T12:37:02;4.70;;;4.40;;
18360;SDS011;9308;48.550;9.108;2023-06-10T12:39:30;5.07;;;4.67;;
18360;SDS011;9308;48.550;9.108;2023-06-10T12:41:56;4.90;;;4.60;;
18360;SDS011;9308;48.550;9.108;2023-06-10T12:44:32;5.67;;;5.23;;
18360;SDS011;9308;48.550;9.108;2023-06-10T12:48:23;5.67;;;5.37;;
18360;SDS011;9308;48.550;9.108;2023-06-10T12:50:52;4.63;;;4.33;;
18360;SDS011;9308;48.550;9.108;2023-06-10T12:53:21;5.27;;;4.80;;
18360;SDS011;9308;48.550;9.108;2023-06-10T12:55:48;5.30;;;4.90;;
18360;SDS011;9308;48.550;9.108;2023-06-10T12:58:14;5.17;;;4.77;;
18360;SDS011;9308;48.550;9.108;2023-06-10T13:00:40;5.43;;;4.90;;
18360;SDS011;9308;48.550;9.108;2023-06-10T13:03:07;5.77;;;5.37;;
18360;SDS011;9308;48.550;9.108;2023-06-10T13:05:34;5.90;;;5.50;;
18360;SDS011;9308;48.550;9.108;2023-06-10T13:08:02;5.30;;;5.00;;
18360;SDS011;9308;48.550;9.108;2023-06-10T13:10:28;6.07;;;5.57;;
18360;SDS011;9308;48.550;9.108;2023-06-10T13:12:53;5.87;;;5.40;;
18360;SDS011;9308;48.550;9.108;2023-06-10T13:15:22;6.00;;;5.50;;
18360;SDS011;9308;48.550;9.108;2023-06-10T13:17:47;5.60;;;5.20;;
18360;SDS011;9308;48.550;9.108;2023-06-10T13:20:14;5.80;;;5.30;;
18360;SDS011;9308;48.550;9.108;2023-06-10T13:22:40;5.60;;;5.20;;
18360;SDS011;9308;48.550;9.108;2023-06-10T13:25:06;5.70;;;5.30;;
18360;SDS011;9308;48.550;9.108;2023-06-10T13:27:35;5.40;;;4.90;;
18360;SDS011;9308;48.550;9.108;2023-06-10T13:30:04;5.53;;;5.13;;
18360;SDS011;9308;48.550;9.108;2023-06-10T13:32:34;4.70;;;4.40;;
18360;SDS011;9308;48.550;9.108;2023-06-10T13:34:59;5.07;;;4.77;;
18360;SDS011;9308;48.550;9.108;2023-06-10T13:37:25;4.80;;;4.50;;
18360;SDS011;9308;48.550;9.108;2023-06-10T13:39:50;4.97;;;4.67;;
18360;SDS011;9308;48.550;9.108;2023-06-10T13:42:19;5.70;;;5.30;;
18360;SDS011;9308;48.550;9.108;2023-06-10T13:44:45;128.13;;;24.70;;
18360;SDS011;9308;48.550;9.108;2023-06-10T13:47:13;5.60;;;5.10;;
18360;SDS011;9308;48.550;9.108;2023-06-10T13:49:38;5.53;;;5.13;;
18360;SDS011;9308;48.550;9.108;2023-06-10T13:52:05;5.30;;;5.00;;
18360;SDS011;9308;48.550;9.108;2023-06-10T13:54:31;5.77;;;5.37;;
18360;SDS011;9308;48.550;9.108;2023-06-10T13:56:56;5.33;;;4.83;;
18360;SDS011;9308;48.550;9.108;2023-06-10T13:59:21;6.33;;;5.83;;
18360;SDS011;9308;48.550;9.108;2023-06-10T14:01:47;6.30;;;5.80;;
18360;SDS011;9308;48.550;9.108;2023-06-10T14:04:13;5.90;;;5.50;;
18360;SDS011;9308;48.550;9.108;2023-06-10T14:06:38;6.50;;;6.10;;
18360;SDS011;9308;48.550;9.108;2023-06-10T14:09:04;6.53;;;6.00;;
18360;SDS011;9308;48.550;9.108;2023-06-10T14:11:30;5.37;;;4.97;;
18360;SDS011;9308;48.550;9.108;2023-06-10T14:13:56;5.63;;;5.20;;
18360;SDS011;9308;48.550;9.108;2023-06-10T14:16:22;6.83;;;5.50;;
18360;SDS011;9308;48.550;9.108;2023-06-10T14:18:48;5.37;;;4.97;;
18360;SDS011;9308;48.550;9.108;2023-06-10T14:21:15;5.03;;;4.63;;
18360;SDS011;9308;48.550;9.108;2023-06-10T14:23:41;5.50;;;5.10;;
18360;SDS011;9308;48.550;9.108;2023-06-10T14:26:08;5.67;;;5.17;;
18360;SDS011;9308;48.550;9.108;2023-06-10T14:28:34;5.40;;;5.10;;
18360;SDS011;9308;48.550;9.108;2023-06-10T14:30:59;5.93;;;5.53;;
18360;SDS011;9308;48.550;9.108;2023-06-10T14:33:24;6.00;;;5.60;;
18360;SDS011;9308;48.550;9.108;2023-06-10T14:35:50;5.37;;;5.07;;
18360;SDS011;9308;48.550;9.108;2023-06-10T14:38:15;6.03;;;5.63;;
18360;SDS011;9308;48.550;9.108;2023-06-10T14:40:41;6.00;;;5.60;;
18360;SDS011;9308;48.550;9.108;2023-06-10T14:43:06;5.97;;;5.47;;
18360;SDS011;9308;48.550;9.108;2023-06-10T14:45:35;6.63;;;6.03;;
18360;SDS011;9308;48.550;9.108;2023-06-10T14:48:02;5.53;;;5.00;;
18360;SDS011;9308;48.550;9.108;2023-06-10T14:50:29;5.70;;;5.30;;
18360;SDS011;9308;48.550;9.108;2023-06-10T14:52:54;6.17;;;5.70;;
18360;SDS011;9308;48.550;9.108;2023-06-10T14:55:19;6.00;;;5.60;;
18360;SDS011;9308;48.550;9.108;2023-06-10T14:57:45;5.40;;;5.00;;
18360;SDS011;9308;48.550;9.108;2023-06-10T15:00:11;5.83;;;5.43;;
18360;SDS011;9308;48.550;9.108;2023-06-10T15:02:40;6.17;;;5.57;;
18360;SDS011;9308;48.550;9.108;2023-06-10T15:05:05;5.70;;;5.30;;
18360;SDS011;9308;48.550;9.108;2023-06-10T15:07:31;5.80;;;5.33;;
18360;SDS011;9308;48.550;9.108;2023-06-10T15:09:56;5.00;;;4.60;;
18360;SDS011;9308;48.550;9.108;2023-06-10T15:12:22;6.30;;;5.80;;